Time;durP1;ratioP1;P1;durP2;ratioP2;P2;SDS_P1;SDS_P2;PMS_P1;PMS_P2;Temp;Humidity;BMP_temperature;BMP_pressure;BME280_temperature;BME280_humidity;BME280_pressure;Samples;Min_cycle;Max_cycle;Signal;HPM_P1;HPM_P2
2023/06/10 00:00:07;;;;;;;7.22;2.00;;;9.50;99.90;;;;;;5076532;28;20394;-77
2023/06/10 00:02:40;;;;;;;4.50;1.80;;;9.50;99.90;;;;;;5051109;28;20064;-77
2023/06/10 00:05:09;;;;;;;2.03;1.67;;;9.50;99.90;;;;;;5051755;28;20048;-79
2023/06/10 00:07:37;;;;;;;3.70;1.67;;;9.60;99.90;;;;;;5064153;28;20496;-80
2023/06/10 00:10:06;;;;;;;2.47;1.70;;;9.70;99.90;;;;;;5070122;28;20048;-79
2023/06/10 00:12:37;;;;;;;1.98;1.80;;;9.70;99.90;;;;;;5070219;28;20060;-80
2023/06/10 00:15:09;;;;;;;2.03;1.52;;;9.70;99.90;;;;;;5068769;28;20056;-79
2023/06/10 00:17:38;;;;;;;2.60;2.20;;;9.70;99.90;;;;;;5067631;28;20059;-80
2023/06/10 00:20:11;;;;;;;3.25;1.60;;;9.70;99.90;;;;;;5071456;28;20509;-79
2023/06/10 00:22:41;;;;;;;4.03;2.25;;;9.70;99.90;;;;;;5068809;28;20047;-79
2023/06/10 00:25:10;;;;;;;3.15;1.75;;;9.60;99.90;;;;;;5068094;28;20409;-78
2023/06/10 00:27:39;;;;;;;2.53;1.67;;;9.60;99.90;;;;;;5071634;28;20127;-78
2023/06/10 00:30:08;;;;;;;2.30;1.63;;;9.50;99.90;;;;;;5051919;28;20049;-78
2023/06/10 00:32:37;;;;;;;5.78;2.03;;;9.40;99.90;;;;;;5069328;28;20397;-78
2023/06/10 00:35:06;;;;;;;2.20;2.00;;;9.40;99.90;;;;;;5065811;28;20416;-78
2023/06/10 00:37:34;;;;;;;3.95;1.80;;;9.30;99.90;;;;;;5069417;28;20045;-78
2023/06/10 00:40:03;;;;;;;3.10;1.73;;;9.30;99.90;;;;;;5051721;28;20045;-78
2023/06/10 00:42:32;;;;;;;4.03;2.25;;;9.20;99.90;;;;;;5066951;28;20135;-78
2023/06/10 00:45:01;;;;;;;1.80;1.67;;;9.10;99.90;;;;;;5068440;28;20054;-77
2023/06/10 00:47:30;;;;;;;2.53;1.75;;;9.10;99.90;;;;;;5069009;28;20053;-77
2023/06/10 00:49:57;;;;;;;3.42;1.80;;;9.10;99.90;;;;;;5051123;28;20056;-77
2023/06/10 00:52:29;;;;;;;4.20;1.83;;;9.00;99.90;;;;;;5062515;28;20426;-77
2023/06/10 00:54:56;;;;;;;4.63;1.80;;;9.00;99.90;;;;;;5070014;28;20044;-78
2023/06/10 00:57:25;;;;;;;2.53;1.70;;;9.00;99.90;;;;;;5068162;28;20517;-77
2023/06/10 00:59:53;;;;;;;3.00;1.30;;;8.90;99.90;;;;;;5070088;28;20058;-77
2023/06/10 01:02:22;;;;;;;3.85;1.52;;;9.00;99.90;;;;;;5065870;28;20052;-78
2023/06/10 01:04:49;;;;;;;3.35;1.85;;;8.90;99.90;;;;;;5069255;28;20728;-77
2023/06/10 01:07:24;;;;;;;3.25;1.98;;;8.90;99.90;;;;;;5067598;28;20048;-77
2023/06/10 01:10:04;;;;;;;2.88;1.80;;;8.90;99.90;;;;;;5067688;28;20080;-76
2023/06/10 01:12:40;;;;;;;6.20;1.63;;;8.90;99.90;;;;;;5069436;28;20044;-77
2023/06/10 01:15:10;;;;;;;1.70;1.60;;;8.90;99.90;;;;;;5068374;28;20072;-77
2023/06/10 01:17:57;;;;;;;1.55;1.42;;;8.80;99.90;;;;;;5070487;28;20135;-78
2023/06/10 01:20:26;;;;;;;2.45;1.77;;;8.80;99.90;;;;;;5080581;28;20075;-77
2023/06/10 01:22:57;;;;;;;4.90;1.63;;;8.80;99.90;;;;;;5069964;28;20493;-77
2023/06/10 01:25:28;;;;;;;2.10;1.30;;;8.80;99.90;;;;;;5051332;28;20056;-77
2023/06/10 01:28:03;;;;;;;1.70;1.40;;;8.80;99.90;;;;;;5067047;28;20048;-77
2023/06/10 01:30:40;;;;;;;4.63;1.60;;;8.70;99.90;;;;;;5064943;28;20060;-76
2023/06/10 01:33:10;;;;;;;5.35;1.60;;;8.70;99.90;;;;;;5085363;28;20733;-77
2023/06/10 01:35:39;;;;;;;4.32;2.15;;;8.70;99.90;;;;;;5050120;28;20080;-76
2023/06/10 01:38:09;;;;;;;1.70;1.33;;;8.70;99.90;;;;;;5052728;28;20467;-76
2023/06/10 01:40:37;;;;;;;2.15;1.70;;;8.70;99.90;;;;;;5069815;28;20523;-76
2023/06/10 01:43:05;;;;;;;4.60;1.42;;;8.70;99.90;;;;;;5050390;28;20519;-77
2023/06/10 01:45:33;;;;;;;2.72;1.27;;;8.70;99.90;;;;;;5084527;28;20047;-77
2023/06/10 01:48:00;;;;;;;3.03;1.40;;;8.70;99.90;;;;;;5066150;28;20139;-76
2023/06/10 01:50:28;;;;;;;2.30;1.50;;;8.70;99.90;;;;;;5069748;28;20055;-77
2023/06/10 01:52:55;;;;;;;1.67;1.45;;;8.70;99.90;;;;;;5067007;28;20091;-76
2023/06/10 01:55:24;;;;;;;1.52;1.40;;;8.70;99.90;;;;;;5065707;28;20056;-76
2023/06/10 01:57:52;;;;;;;2.05;1.63;;;8.70;99.90;;;;;;5065671;28;20052;-77
2023/06/10 02:00:20;;;;;;;2.20;1.48;;;8.80;99.90;;;;;;5051587;28;20052;-77
2023/06/10 02:02:47;;;;;;;3.55;1.52;;;8.70;99.90;;;;;;5068169;28;20188;-77
2023/06/10 02:05:16;;;;;;;3.10;1.38;;;8.70;99.90;;;;;;5063080;28;20125;-77
2023/06/10 02:07:43;;;;;;;2.10;1.50;;;8.70;99.90;;;;;;5069690;28;20045;-77
2023/06/10 02:10:11;;;;;;;1.65;1.55;;;8.70;99.90;;;;;;5067757;28;20048;-77
2023/06/10 02:12:40;;;;;;;1.95;1.60;;;8.70;99.90;;;;;;5068065;28;20051;-77
2023/06/10 02:15:07;;;;;;;3.17;1.60;;;8.70;99.90;;;;;;5050074;28;20067;-78
2023/06/10 02:17:35;;;;;;;5.03;1.50;;;8.70;99.90;;;;;;5069087;28;20145;-78
2023/06/10 02:20:22;;;;;;;4.10;1.48;;;8.70;99.90;;;;;;5067336;28;20141;-78
2023/06/10 02:22:50;;;;;;;6.78;2.05;;;8.70;99.90;;;;;;5064994;28;20057;-78
2023/06/10 02:25:18;;;;;;;1.52;1.42;;;8.70;99.90;;;;;;5068114;28;20126;-78
2023/06/10 02:27:46;;;;;;;1.63;1.52;;;8.70;99.90;;;;;;5068689;28;20430;-77
2023/06/10 02:30:15;;;;;;;3.17;1.60;;;8.80;99.90;;;;;;5067650;28;20110;-77
2023/06/10 02:32:47;;;;;;;3.65;1.60;;;8.80;99.90;;;;;;5064086;28;20098;-77
2023/06/10 02:35:17;;;;;;;5.30;2.28;;;8.70;99.90;;;;;;5067581;28;20052;-77
2023/06/10 02:37:45;;;;;;;2.85;1.30;;;8.70;99.90;;;;;;5066685;28;20135;-77
2023/06/10 02:40:13;;;;;;;1.65;1.42;;;8.70;99.90;;;;;;5068809;28;20513;-77
2023/06/10 02:42:40;;;;;;;2.13;1.80;;;8.70;99.90;;;;;;5063350;28;20048;-76
2023/06/10 02:45:11;;;;;;;2.90;1.33;;;8.70;99.90;;;;;;5050874;28;20056;-77
2023/06/10 02:47:43;;;;;;;1.65;1.50;;;8.70;99.90;;;;;;5083762;28;20121;-76
2023/06/10 02:50:12;;;;;;;1.73;1.50;;;8.70;99.90;;;;;;5064419;28;20048;-76
2023/06/10 02:52:50;;;;;;;1.48;1.38;;;8.70;99.90;;;;;;5046458;28;20103;-76
2023/06/10 02:55:18;;;;;;;2.83;1.80;;;8.70;99.90;;;;;;5035119;28;20083;-77
2023/06/10 02:57:51;;;;;;;;;;;8.70;99.90;;;;;;5054021;28;20394;-77
2023/06/10 03:00:22;;;;;;;2.85;1.48;;;8.70;99.90;;;;;;5065896;28;19928;-77
2023/06/10 03:02:50;;;;;;;2.28;1.63;;;8.70;99.90;;;;;;5070712;28;20139;-78
2023/06/10 03:05:23;;;;;;;1.55;1.45;;;8.70;99.90;;;;;;5069435;28;20459;-78
2023/06/10 03:07:53;;;;;;;2.10;2.00;;;8.70;99.90;;;;;;5087696;28;20412;-77
2023/06/10 03:10:21;;;;;;;4.65;1.63;;;8.80;99.90;;;;;;5050123;28;20068;-78
2023/06/10 03:12:49;;;;;;;2.63;1.80;;;8.80;99.90;;;;;;5069321;28;20518;-77
2023/06/10 03:15:16;;;;;;;1.52;1.42;;;8.80;99.90;;;;;;5070384;28;20251;-77
2023/06/10 03:17:45;;;;;;;4.10;1.30;;;8.90;99.90;;;;;;5051109;28;20135;-77
2023/06/10 03:20:15;;;;;;;1.42;1.33;;;8.90;99.90;;;;;;5069605;28;20523;-78
2023/06/10 03:22:43;;;;;;;3.42;1.80;;;8.90;99.90;;;;;;5086128;28;20052;-77
2023/06/10 03:25:14;;;;;;;3.08;1.30;;;8.90;99.90;;;;;;5070362;28;20524;-78
2023/06/10 03:27:44;;;;;;;3.75;1.55;;;8.90;99.90;;;;;;5067779;28;20190;-77
2023/06/10 03:30:16;;;;;;;2.80;1.60;;;8.90;99.90;;;;;;5086955;28;20147;-77
2023/06/10 03:32:48;;;;;;;4.45;1.35;;;8.90;99.90;;;;;;5069162;28;20052;-77
2023/06/10 03:35:18;;;;;;;1.42;1.33;;;9.00;99.90;;;;;;5087013;28;20052;-77
2023/06/10 03:37:46;;;;;;;6.47;1.30;;;9.00;99.90;;;;;;5063487;28;20110;-77
2023/06/10 03:40:14;;;;;;;1.50;1.33;;;9.00;99.90;;;;;;5085745;28;20231;-76
2023/06/10 03:42:45;;;;;;;1.33;1.20;;;9.10;99.90;;;;;;5071448;28;20053;-78
2023/06/10 03:45:15;;;;;;;2.17;1.50;;;9.10;99.90;;;;;;5063653;28;20048;-76
2023/06/10 03:47:43;;;;;;;1.80;1.50;;;9.10;99.90;;;;;;5068913;28;20063;-76
2023/06/10 03:50:18;;;;;;;3.97;1.85;;;9.20;99.90;;;;;;5084577;28;20132;-76
2023/06/10 03:52:46;;;;;;;2.45;1.35;;;9.20;99.90;;;;;;5086205;28;20528;-77
2023/06/10 03:55:16;;;;;;;2.35;1.45;;;9.20;99.90;;;;;;5080491;28;20137;-77
2023/06/10 03:57:46;;;;;;;1.30;1.20;;;9.20;99.90;;;;;;5069204;28;20057;-77
2023/06/10 04:00:17;;;;;;;1.95;1.23;;;9.30;99.90;;;;;;5049517;28;20512;-77
2023/06/10 04:02:48;;;;;;;2.38;1.20;;;9.30;99.90;;;;;;5059990;28;20069;-78
2023/06/10 04:05:28;;;;;;;4.20;1.48;;;9.40;99.90;;;;;;5032815;28;20577;-77
2023/06/10 04:07:56;;;;;;;1.30;1.20;;;9.40;99.90;;;;;;5063607;28;20114;-77
2023/06/10 04:10:24;;;;;;;1.38;1.20;;;9.50;99.90;;;;;;5066216;28;20133;-77
2023/06/10 04:12:52;;;;;;;3.05;1.02;;;9.50;99.90;;;;;;5068677;28;20037;-77
2023/06/10 04:15:20;;;;;;;3.92;1.42;;;9.60;99.90;;;;;;5052362;28;20052;-77
2023/06/10 04:17:50;;;;;;;1.98;1.20;;;9.60;99.90;;;;;;5072355;28;20043;-78
2023/06/10 04:20:20;;;;;;;1.38;1.27;;;9.70;99.90;;;;;;5066712;28;20048;-78
2023/06/10 04:22:50;;;;;;;1.27;1.17;;;9.80;99.90;;;;;;5069463;28;20087;-78
2023/06/10 04:25:18;;;;;;;2.58;1.20;;;9.90;99.90;;;;;;5050450;28;20424;-77
2023/06/10 04:27:47;;;;;;;1.60;1.45;;;9.90;99.90;;;;;;5065439;28;20423;-78
2023/06/10 04:30:17;;;;;;;1.58;1.20;;;10.00;99.90;;;;;;5067273;28;20539;-77
2023/06/10 04:32:45;;;;;;;4.07;1.20;;;10.10;99.90;;;;;;5067144;28;20049;-78
2023/06/10 04:35:17;;;;;;;7.47;1.20;;;10.20;99.90;;;;;;5066916;28;20056;-78
2023/06/10 04:37:45;;;;;;;3.03;1.05;;;10.30;99.90;;;;;;5049651;28;20523;-78
2023/06/10 04:40:15;;;;;;;2.38;1.30;;;10.40;99.90;;;;;;5085028;28;20448;-78
2023/06/10 04:42:43;;;;;;;1.05;0.95;;;10.50;99.90;;;;;;5068845;28;20063;-78
2023/06/10 04:45:11;;;;;;;1.13;0.80;;;10.50;99.90;;;;;;5058775;28;20384;-79
2023/06/10 04:47:39;;;;;;;3.40;1.00;;;10.70;99.90;;;;;;5067172;28;20067;-79
2023/06/10 04:50:09;;;;;;;6.32;0.95;;;10.80;99.90;;;;;;5067734;28;20040;-79
2023/06/10 04:52:36;;;;;;;2.05;1.08;;;10.90;99.90;;;;;;5067905;28;20052;-79
2023/06/10 04:55:05;;;;;;;0.98;0.80;;;10.90;99.90;;;;;;5065033;28;20061;-80
2023/06/10 04:57:34;;;;;;;1.50;0.70;;;11.00;99.90;;;;;;5068448;28;20131;-79
2023/06/10 05:00:01;;;;;;;2.80;1.00;;;11.10;99.90;;;;;;5068550;28;20044;-79
2023/06/10 05:02:32;;;;;;;2.10;0.80;;;11.20;99.90;;;;;;5063822;28;20123;-79
2023/06/10 05:05:00;;;;;;;1.67;0.90;;;11.20;99.90;;;;;;5066849;28;20556;-79
2023/06/10 05:07:27;;;;;;;3.15;1.00;;;11.30;99.90;;;;;;5050235;28;20558;-79
2023/06/10 05:09:55;;;;;;;3.38;0.95;;;11.40;99.90;;;;;;5065741;28;20428;-78
2023/06/10 05:12:23;;;;;;;1.30;1.17;;;11.50;99.90;;;;;;5066207;28;20052;-79
2023/06/10 05:14:53;;;;;;;3.80;0.77;;;11.70;99.90;;;;;;5067337;28;20036;-78
2023/06/10 05:17:20;;;;;;;1.23;0.90;;;11.80;99.90;;;;;;5086711;28;20048;-78
2023/06/10 05:19:48;;;;;;;3.75;0.80;;;12.00;99.90;;;;;;5066802;28;20118;-78
2023/06/10 05:22:16;;;;;;;1.38;1.27;;;12.20;99.90;;;;;;5066668;28;20109;-76
2023/06/10 05:24:43;;;;;;;0.70;0.57;;;12.50;99.90;;;;;;5068350;28;20875;-77
2023/06/10 05:27:11;;;;;;;3.17;0.90;;;12.70;99.90;;;;;;5065708;28;20049;-77
2023/06/10 05:29:39;;;;;;;3.67;0.63;;;12.90;99.90;;;;;;5064388;28;20048;-80
2023/06/10 05:32:09;;;;;;;2.20;1.10;;;13.10;99.90;;;;;;5049081;28;20052;-77
2023/06/10 05:34:40;;;;;;;4.05;0.90;;;13.40;99.90;;;;;;5068370;28;20131;-79
2023/06/10 05:37:08;;;;;;;2.90;1.70;;;13.50;99.90;;;;;;5066607;28;20036;-78
2023/06/10 05:39:38;;;;;;;4.47;1.77;;;13.80;99.90;;;;;;5066359;28;20055;-78
2023/06/10 05:42:08;;;;;;;1.05;0.90;;;14.20;99.90;;;;;;5065530;28;20082;-77
2023/06/10 05:44:36;;;;;;;2.00;0.85;;;14.60;99.90;;;;;;5066828;28;20190;-78
2023/06/10 05:47:05;;;;;;;0.80;0.80;;;15.00;99.90;;;;;;5046693;28;20468;-77
2023/06/10 05:49:34;;;;;;;2.65;0.73;;;15.60;99.90;;;;;;5064489;28;20047;-79
2023/06/10 05:52:02;;;;;;;1.50;1.00;;;16.00;99.90;;;;;;5066904;28;20075;-78
2023/06/10 05:54:30;;;;;;;2.83;0.80;;;16.50;99.90;;;;;;5083068;28;20059;-78
2023/06/10 05:57:00;;;;;;;1.15;0.88;;;16.70;97.30;;;;;;5048379;28;20273;-77
2023/06/10 05:59:28;;;;;;;1.60;0.90;;;16.80;95.90;;;;;;5045154;28;20051;-78
2023/06/10 06:01:55;;;;;;;1.98;0.80;;;17.00;94.20;;;;;;5067257;28;20036;-77
2023/06/10 06:04:23;;;;;;;1.70;0.80;;;16.80;93.00;;;;;;5066503;28;20046;-81
2023/06/10 06:06:52;;;;;;;2.28;0.65;;;17.00;93.80;;;;;;5068952;28;20143;-83
2023/06/10 06:09:20;;;;;;;0.77;0.77;;;17.10;92.60;;;;;;5064031;28;20048;-80
2023/06/10 06:11:47;;;;;;;0.88;0.88;;;17.70;92.50;;;;;;5068364;28;20133;-84
2023/06/10 06:14:15;;;;;;;0.98;0.90;;;18.30;90.90;;;;;;5063998;28;20045;-83
2023/06/10 06:16:43;;;;;;;2.95;1.10;;;18.90;87.40;;;;;;5057120;28;20045;-82
2023/06/10 06:19:11;;;;;;;1.45;0.82;;;19.40;82.90;;;;;;5059621;28;20076;-83
2023/06/10 06:21:38;;;;;;;0.60;0.57;;;19.90;81.60;;;;;;5066777;28;20045;-83
2023/06/10 06:24:09;;;;;;;2.53;0.80;;;20.40;78.90;;;;;;5077871;28;20409;-78
2023/06/10 06:26:45;;;;;;;1.35;0.70;;;21.00;77.50;;;;;;5063288;28;20044;-78
2023/06/10 06:29:13;;;;;;;3.72;1.52;;;21.10;73.90;;;;;;5065400;28;20191;-81
2023/06/10 06:31:41;;;;;;;3.60;0.80;;;20.50;69.60;;;;;;5070438;28;20076;-82
2023/06/10 06:34:11;;;;;;;0.82;0.60;;;20.50;72.50;;;;;;5066536;28;20055;-82
2023/06/10 06:36:39;;;;;;;0.98;0.80;;;21.00;72.30;;;;;;5063646;28;20064;-82
2023/06/10 06:39:08;;;;;;;2.30;1.70;;;21.20;70.30;;;;;;5073144;28;20406;-83
2023/06/10 06:41:36;;;;;;;1.17;0.98;;;20.80;70.00;;;;;;5080597;28;20044;-83
2023/06/10 06:44:06;;;;;;;0.98;0.80;;;20.20;70.00;;;;;;5065400;28;20067;-82
2023/06/10 06:46:45;;;;;;;1.10;1.00;;;19.70;71.50;;;;;;5073073;28;20135;-82
2023/06/10 06:49:13;;;;;;;3.67;0.85;;;19.20;72.90;;;;;;5075714;28;20064;-87
2023/06/10 06:51:40;;;;;;;2.20;0.80;;;18.90;73.00;;;;;;5057593;28;20194;-86
2023/06/10 06:54:09;;;;;;;0.80;0.80;;;18.90;73.40;;;;;;5072009;28;20044;-88
2023/06/10 06:56:38;;;;;;;1.80;0.82;;;19.90;72.30;;;;;;5072342;28;20047;-79
2023/06/10 06:59:05;;;;;;;1.00;0.55;;;20.70;68.80;;;;;;5062981;28;20048;-78
2023/06/10 07:01:35;;;;;;;1.35;1.15;;;20.40;66.40;;;;;;5071330;28;20531;-80
2023/06/10 07:04:03;;;;;;;6.43;1.08;;;19.80;65.80;;;;;;5064342;28;20044;-80
2023/06/10 07:06:31;;;;;;;5.50;0.90;;;19.10;67.60;;;;;;5071671;28;20037;-80
2023/06/10 07:08:58;;;;;;;0.85;0.85;;;18.50;69.50;;;;;;5069527;28;20044;-79
2023/06/10 07:11:27;;;;;;;1.08;0.98;;;17.90;71.00;;;;;;5068037;28;20044;-81
2023/06/10 07:13:55;;;;;;;1.20;1.10;;;17.40;73.60;;;;;;5046720;28;20052;-79
2023/06/10 07:16:23;;;;;;;2.42;1.15;;;17.00;75.10;;;;;;5053214;28;20060;-76
2023/06/10 07:18:50;;;;;;;1.02;0.95;;;16.70;76.80;;;;;;5087745;28;20063;-78
2023/06/10 07:21:19;;;;;;;1.15;1.05;;;16.60;76.20;;;;;;5066970;28;20068;-84
2023/06/10 07:23:47;;;;;;;2.50;1.35;;;16.40;77.40;;;;;;5072506;28;20041;-80
2023/06/10 07:26:15;;;;;;;1.45;1.02;;;16.20;78.90;;;;;;5050928;28;20539;-80
2023/06/10 07:28:44;;;;;;;1.77;1.00;;;16.10;80.60;;;;;;5086550;28;20045;-79
2023/06/10 07:31:12;;;;;;;3.15;1.10;;;16.00;79.70;;;;;;5053186;28;20052;-78
2023/06/10 07:33:40;;;;;;;1.27;1.00;;;15.90;80.60;;;;;;5074687;28;20127;-78
2023/06/10 07:36:08;;;;;;;1.20;1.10;;;15.80;81.40;;;;;;5048055;28;20049;-80
2023/06/10 07:38:36;;;;;;;1.00;0.90;;;15.60;81.30;;;;;;5069301;28;20049;-77
2023/06/10 07:41:04;;;;;;;3.58;0.93;;;15.50;82.30;;;;;;5072034;28;20059;-79
2023/06/10 07:43:31;;;;;;;2.17;1.25;;;15.50;83.20;;;;;;5069284;28;20051;-79
2023/06/10 07:46:00;;;;;;;1.10;1.00;;;15.50;83.00;;;;;;5051846;28;20080;-79
2023/06/10 07:48:28;;;;;;;1.35;1.05;;;15.60;84.30;;;;;;5054216;28;20401;-82
2023/06/10 07:50:55;;;;;;;1.08;1.05;;;15.60;85.50;;;;;;5071070;28;20040;-84
2023/06/10 07:53:23;;;;;;;14.23;1.27;;;15.60;85.50;;;;;;5071645;28;20075;-83
2023/06/10 07:55:51;;;;;;;2.25;1.13;;;15.60;86.10;;;;;;5069640;28;20062;-84
2023/06/10 07:58:19;;;;;;;0.80;0.80;;;15.60;86.50;;;;;;5069421;28;20048;-80
2023/06/10 08:00:48;;;;;;;2.55;1.00;;;15.70;87.30;;;;;;5071065;28;20070;-79
2023/06/10 08:03:17;;;;;;;9.27;1.52;;;15.70;87.90;;;;;;5074720;28;20048;-79
2023/06/10 08:05:45;;;;;;;5.45;1.30;;;15.80;87.40;;;;;;5060135;28;20544;-81
2023/06/10 08:08:12;;;;;;;2.72;1.35;;;15.70;89.50;;;;;;5065715;28;20048;-78
2023/06/10 08:10:46;;;;;;;7.85;1.30;;;15.80;87.40;;;;;;5069008;28;20574;-79
2023/06/10 08:13:14;;;;;;;2.65;1.15;;;16.00;87.20;;;;;;5045292;28;20053;-79
2023/06/10 08:15:42;;;;;;;3.15;1.10;;;16.30;87.20;;;;;;5061955;28;20041;-80
2023/06/10 08:18:10;;;;;;;1.35;1.00;;;16.80;86.10;;;;;;5069470;28;20100;-80
2023/06/10 08:20:39;;;;;;;1.80;1.02;;;18.40;84.80;;;;;;5065453;28;20052;-78
2023/06/10 08:23:06;;;;;;;1.30;1.20;;;19.20;79.70;;;;;;5063305;28;20043;-78
2023/06/10 08:25:34;;;;;;;1.15;0.90;;;19.10;76.30;;;;;;5063863;28;20045;-80
2023/06/10 08:28:01;;;;;;;1.88;0.90;;;18.90;74.70;;;;;;5064858;28;20529;-80
2023/06/10 08:30:30;;;;;;;3.90;1.52;;;19.80;76.40;;;;;;5055921;28;20076;-82
2023/06/10 08:32:57;;;;;;;1.67;0.90;;;21.30;70.50;;;;;;5066906;28;20119;-79
2023/06/10 08:35:25;;;;;;;1.40;0.90;;;21.50;67.70;;;;;;5067662;28;20071;-79
2023/06/10 08:37:54;;;;;;;5.88;1.38;;;20.80;66.00;;;;;;5088870;28;20044;-79
2023/06/10 08:40:24;;;;;;;4.40;1.00;;;20.10;69.60;;;;;;5070702;28;20052;-81
2023/06/10 08:43:02;;;;;;;4.20;1.00;;;19.70;71.20;;;;;;5065464;28;20119;-80
2023/06/10 08:45:32;;;;;;;1.05;0.90;;;19.20;71.70;;;;;;5068469;28;20044;-78
2023/06/10 08:48:01;;;;;;;1.95;1.10;;;18.80;71.70;;;;;;5069888;28;20105;-79
2023/06/10 08:50:31;;;;;;;1.33;0.70;;;18.40;73.10;;;;;;5062231;28;20052;-77
2023/06/10 08:53:02;;;;;;;0.80;0.80;;;18.10;73.30;;;;;;5050452;28;20564;-80
2023/06/10 08:55:33;;;;;;;0.85;0.80;;;17.90;73.90;;;;;;5068674;28;20049;-77
2023/06/10 08:58:01;;;;;;;2.03;1.10;;;17.80;73.00;;;;;;5054377;28;20129;-77
2023/06/10 09:00:31;;;;;;;0.98;0.93;;;17.80;74.70;;;;;;5081786;28;20076;-79
2023/06/10 09:03:00;;;;;;;1.25;0.90;;;17.90;74.70;;;;;;5065154;28;20052;-75
2023/06/10 09:05:29;;;;;;;1.13;0.75;;;18.30;74.60;;;;;;5081826;28;20099;-80
2023/06/10 09:08:01;;;;;;;1.70;0.90;;;19.80;74.60;;;;;;5068567;28;20072;-81
2023/06/10 09:10:29;;;;;;;1.42;0.77;;;22.20;67.40;;;;;;5065817;28;20050;-82
2023/06/10 09:12:57;;;;;;;1.90;0.68;;;23.40;60.10;;;;;;5068277;28;20052;-81
2023/06/10 09:15:24;;;;;;;1.45;1.10;;;22.90;59.40;;;;;;5086785;28;20071;-79
2023/06/10 09:17:52;;;;;;;1.02;0.63;;;22.00;60.50;;;;;;5069549;28;20052;-80
2023/06/10 09:20:20;;;;;;;2.97;0.80;;;21.20;61.50;;;;;;5071736;28;20098;-79
2023/06/10 09:22:48;;;;;;;2.08;0.77;;;20.60;61.30;;;;;;5069160;28;20423;-79
2023/06/10 09:25:18;;;;;;;2.13;0.77;;;21.50;61.90;;;;;;5067880;28;20102;-79
2023/06/10 09:27:50;;;;;;;1.67;0.80;;;21.70;61.80;;;;;;5067654;28;20143;-82
2023/06/10 09:30:27;;;;;;;1.33;0.60;;;21.40;61.40;;;;;;5075425;28;20064;-79
2023/06/10 09:32:56;;;;;;;2.15;0.75;;;20.60;61.40;;;;;;5076840;28;20076;-78
2023/06/10 09:35:24;;;;;;;2.35;1.00;;;21.10;61.90;;;;;;5051689;28;20045;-79
2023/06/10 09:37:54;;;;;;;1.38;0.75;;;22.60;59.20;;;;;;5062583;28;20045;-79
2023/06/10 09:40:24;;;;;;;1.25;0.63;;;24.30;55.60;;;;;;5067401;28;20455;-79
2023/06/10 09:43:01;;;;;;;0.90;0.55;;;25.50;54.40;;;;;;5075388;28;20049;-82
2023/06/10 09:45:32;;;;;;;0.85;0.57;;;26.60;51.40;;;;;;5065314;28;20471;-81
2023/06/10 09:48:01;;;;;;;0.70;0.60;;;26.10;49.10;;;;;;5070571;28;20427;-81
2023/06/10 09:50:34;;;;;;;0.63;0.63;;;25.00;49.80;;;;;;5076695;28;20049;-80
2023/06/10 09:53:02;;;;;;;2.40;0.85;;;24.40;52.50;;;;;;5065128;28;20064;-81
2023/06/10 09:55:34;;;;;;;5.90;0.85;;;25.10;52.20;;;;;;5078338;28;20040;-78
2023/06/10 09:58:02;;;;;;;;;;;26.20;50.40;;;;;;5062512;28;20056;-80
2023/06/10 10:00:30;;;;;;;0.85;0.85;;;27.10;47.00;;;;;;5067109;28;19925;-78
2023/06/10 10:02:57;;;;;;;0.70;0.60;;;27.40;46.90;;;;;;5084167;28;20052;-79
2023/06/10 10:05:25;;;;;;;0.47;0.43;;;27.80;46.50;;;;;;5065212;28;20059;-78
2023/06/10 10:07:53;;;;;;;5.80;0.70;;;28.40;47.70;;;;;;5071635;28;20510;-78
2023/06/10 10:10:21;;;;;;;0.85;0.40;;;28.80;46.10;;;;;;5071096;28;20557;-77
2023/06/10 10:12:56;;;;;;;1.85;0.80;;;29.00;45.40;;;;;;5068225;28;20055;-77
2023/06/10 10:15:29;;;;;;;5.35;0.80;;;29.40;45.10;;;;;;5066359;28;20098;-81
2023/06/10 10:18:05;;;;;;;0.82;0.82;;;29.50;44.40;;;;;;5055624;28;20045;-79
2023/06/10 10:20:36;;;;;;;2.47;0.77;;;29.80;44.10;;;;;;5072994;28;20528;-79
2023/06/10 10:23:07;;;;;;;1.70;0.63;;;29.90;43.10;;;;;;5067965;28;20045;-80
2023/06/10 10:25:41;;;;;;;1.40;0.82;;;30.00;41.50;;;;;;5073442;28;20047;-79
2023/06/10 10:28:12;;;;;;;1.55;0.60;;;30.00;40.80;;;;;;5073621;28;20055;-77
2023/06/10 10:30:44;;;;;;;0.50;0.50;;;29.90;39.40;;;;;;5073083;28;20048;-77
2023/06/10 10:33:18;;;;;;;1.13;0.70;;;29.90;39.80;;;;;;5067769;28;20052;-77
2023/06/10 10:35:48;;;;;;;0.60;0.60;;;29.90;41.20;;;;;;5072201;28;20048;-78
2023/06/10 10:38:16;;;;;;;3.60;0.85;;;30.00;42.00;;;;;;5071923;28;20044;-79
2023/06/10 10:40:46;;;;;;;1.35;0.63;;;30.20;40.30;;;;;;5070820;28;20495;-79
2023/06/10 10:43:15;;;;;;;2.38;0.77;;;30.20;40.20;;;;;;5071417;28;20045;-79
2023/06/10 10:45:42;;;;;;;1.23;0.70;;;30.30;39.80;;;;;;5072359;28;20513;-77
2023/06/10 10:48:14;;;;;;;0.60;0.60;;;30.30;38.30;;;;;;5082638;28;20052;-79
2023/06/10 10:50:42;;;;;;;;;;;30.20;38.70;;;;;;5069723;28;20147;-79
2023/06/10 10:53:21;;;;;;;2.53;0.90;;;30.30;37.70;;;;;;5077772;28;19929;-79
2023/06/10 10:56:00;;;;;;;2.30;0.65;;;30.30;39.50;;;;;;5088826;28;20056;-79
2023/06/10 10:58:44;;;;;;;0.60;0.60;;;30.50;38.60;;;;;;5068620;28;20136;-78
2023/06/10 11:01:25;;;;;;;1.13;0.60;;;30.80;38.90;;;;;;5070787;28;20055;-79
2023/06/10 11:03:57;;;;;;;2.05;0.50;;;31.00;38.10;;;;;;5060460;28;20048;-79
2023/06/10 11:06:45;;;;;;;0.60;0.60;;;31.10;38.60;;;;;;5057922;28;20045;-79
2023/06/10 11:09:29;;;;;;;1.65;0.63;;;31.30;37.20;;;;;;5056929;28;20538;-78
2023/06/10 11:11:59;;;;;;;0.40;0.40;;;31.30;37.20;;;;;;5085441;28;20421;-79
2023/06/10 11:14:32;;;;;;;2.75;0.50;;;31.40;38.00;;;;;;5070645;28;20056;-79
2023/06/10 11:17:01;;;;;;;1.60;0.93;;;31.70;37.10;;;;;;5064338;28;20071;-76
2023/06/10 11:19:35;;;;;;;2.22;0.77;;;31.90;37.60;;;;;;5084875;28;20079;-78
2023/06/10 11:22:06;;;;;;;0.98;0.50;;;32.10;36.90;;;;;;5082334;28;20095;-78
2023/06/10 11:24:36;;;;;;;3.60;0.60;;;31.80;36.10;;;;;;5070200;28;20054;-78
2023/06/10 11:27:21;;;;;;;5.90;0.70;;;31.90;36.60;;;;;;5067246;28;20106;-78
2023/06/10 11:30:20;;;;;;;0.75;0.50;;;32.10;36.80;;;;;;5071021;28;20079;-77
2023/06/10 11:32:53;;;;;;;0.77;0.77;;;32.20;35.60;;;;;;5070512;28;20106;-78
2023/06/10 11:35:24;;;;;;;0.60;0.52;;;32.20;36.60;;;;;;5084742;28;20052;-77
2023/06/10 11:37:52;;;;;;;2.50;0.50;;;32.40;36.30;;;;;;5064490;28;20064;-79
2023/06/10 11:40:20;;;;;;;0.40;0.40;;;32.60;35.90;;;;;;5074415;28;20052;-77
2023/06/10 11:42:47;;;;;;;0.55;0.35;;;32.60;36.40;;;;;;5071367;28;20036;-77
2023/06/10 11:45:18;;;;;;;2.42;0.75;;;32.70;35.50;;;;;;5067611;28;20059;-77
2023/06/10 11:47:58;;;;;;;0.77;0.43;;;32.60;35.80;;;;;;5071616;28;20057;-75
2023/06/10 11:50:32;;;;;;;1.77;0.60;;;32.60;35.80;;;;;;5069567;28;20044;-77
2023/06/10 11:53:00;;;;;;;3.10;1.80;;;32.50;36.90;;;;;;5048364;28;20080;-76
2023/06/10 11:55:43;;;;;;;1.50;0.40;;;32.60;35.90;;;;;;5061586;28;20082;-76
2023/06/10 11:58:15;;;;;;;0.75;0.50;;;32.60;36.80;;;;;;5067094;28;20072;-76
2023/06/10 12:00:48;;;;;;;;;;;32.60;35.10;;;;;;5066103;28;20536;-78
2023/06/10 12:03:15;;;;;;;2.83;0.50;;;32.40;34.80;;;;;;5069410;28;19964;-76
2023/06/10 12:05:58;;;;;;;0.60;0.60;;;32.40;35.80;;;;;;5070588;28;20036;-76
2023/06/10 12:08:26;;;;;;;0.73;0.57;;;32.60;36.50;;;;;;5069734;28;20059;-76
2023/06/10 12:10:53;;;;;;;0.57;0.57;;;33.00;36.20;;;;;;5069235;28;20389;-77
2023/06/10 12:13:22;;;;;;;1.23;0.70;;;33.20;37.60;;;;;;5067923;28;20052;-77
2023/06/10 12:15:52;;;;;;;0.85;0.60;;;33.30;34.90;;;;;;5069807;28;20141;-76
2023/06/10 12:18:20;;;;;;;0.65;0.60;;;33.10;34.70;;;;;;5071003;28;20044;-76
2023/06/10 12:20:49;;;;;;;0.57;0.40;;;33.20;35.20;;;;;;5070903;28;20049;-77
2023/06/10 12:23:17;;;;;;;2.15;0.70;;;33.20;34.20;;;;;;5066428;28;20412;-77
2023/06/10 12:25:52;;;;;;;0.77;0.63;;;33.20;33.90;;;;;;5087259;28;20040;-76
2023/06/10 12:28:22;;;;;;;0.40;0.40;;;33.20;34.60;;;;;;5081645;28;20608;-76
2023/06/10 12:30:52;;;;;;;0.47;0.47;;;33.40;34.10;;;;;;5066119;28;20045;-77
2023/06/10 12:33:20;;;;;;;1.52;0.65;;;33.40;34.30;;;;;;5068172;28;20047;-77
2023/06/10 12:35:50;;;;;;;0.50;0.50;;;33.40;34.30;;;;;;5069071;28;20052;-77
2023/06/10 12:38:24;;;;;;;3.38;0.80;;;33.50;34.20;;;;;;5068355;28;20538;-77
2023/06/10 12:40:52;;;;;;;1.45;0.80;;;33.60;34.30;;;;;;5065258;28;20041;-77
2023/06/10 12:43:26;;;;;;;2.05;0.60;;;33.60;34.00;;;;;;5069371;28;20493;-77
2023/06/10 12:45:55;;;;;;;0.60;0.60;;;33.70;34.20;;;;;;5068073;28;20056;-78
2023/06/10 12:48:24;;;;;;;1.58;0.60;;;33.60;34.20;;;;;;5063052;28;20040;-78
2023/06/10 12:50:54;;;;;;;0.60;0.60;;;33.60;34.00;;;;;;5066843;28;20051;-77
2023/06/10 12:53:23;;;;;;;1.13;1.00;;;33.70;33.80;;;;;;5067786;28;20083;-76
2023/06/10 12:55:51;;;;;;;1.23;0.60;;;33.80;34.00;;;;;;5068975;28;20044;-76
2023/06/10 12:58:21;;;;;;;0.60;0.60;;;33.90;33.10;;;;;;5066533;28;20049;-77
2023/06/10 13:00:56;;;;;;;1.63;0.85;;;33.80;34.40;;;;;;5068819;28;20497;-77
2023/06/10 13:03:26;;;;;;;1.33;0.77;;;33.90;34.00;;;;;;5068849;28;20055;-76